« 趣味的航空路誌改訂情報 2019/8/15 thu | トップページ | 定点 富山空港 2019/8/19 mon »

2019/08/17

定点 富山空港 2019/8/17 sat

お盆も終わっても、世の中連休中。高校野球も佳境。

RJNT 162300Z 29003KT 240V350 9999 FEW020 BKN060 BKN090 30/24 Q1002

20190817_rjnt_00ja63an

岩瀬浜は清掃ボランティア中

20190817_rjnt_01ja63an

ANA313 RJTT-RJNT JA63AN B737-881

RJNT 170100Z 26008KT 230V290 9999 FEW030 BKN070 BKN090 30/23 Q1003

20190817_rjnt_02ja63an

パッセンジャートラブルで一度GTBして再出発

20190817_rjnt_03ja63an

ANA316 RJNT-RJTT JA63AN B737-881

20190817_rjnt_04ja132a

20190817_rjnt_05ja132a

ANA315 RJTT-RJNT JA132A A321-272N

20190817_rjnt_06b6908

20190817_rjnt_07b6908

CSN613 ZYTL-RJNT B-6908 A320-232

RJNT 170200Z 25008KT 9999 FEW030 SCT090 32/23 Q1003

20190817_rjnt_08ja6502

JA6502 AS350B3 AKF

20190817_rjnt_09ja6502

35の尾翼になんか描いてある

20190817_rjnt_10ja132a

ANA1181 RJNT-RJCC JA132A A321-272N

RJNT 170300Z 28010KT 240V320 9999 FEW030 SCT040 32/23 Q1003

20190817_rjnt_11b6908

CSN614 RJNT-ZYTL B-6908 A320-232

RJNT 170400Z 28011KT 9999 FEW040 33/23 Q1002

20190817_rjnt_12b5261

世界のパン

20190817_rjnt_13b5261

CSH825 ZSPD-RJNT B-5261 B737-76D

20190817_rjnt_14b5261

絶賛増便中

20190817_rjnt_15ja6768

コロコロして準備中

20190817_rjnt_16ja6768

新しいPさん搭乗

20190817_rjnt_17ja6768

いよいよ機種転準備かな

20190817_rjnt_18ja6768

20190817_rjnt_19ja6768

JA6768 B412EP 富山県消防防災

20190817_rjnt_20ja6768

本日は訓練

RJNT 170500Z 28011KT 9999 FEW040 32/23 Q1002

20190817_rjnt_21ja10ym

JA10YM A109SP SAK 富山県ドクヘリ 南破方面

20190817_rjnt_22b5261

CSH826 RJNT-ZSPD B-5261 B737-76D

20190817_rjnt_23b5261

もう熱て暑て、撤収

この後、動乱の香港からお客さんが・・

 

|

« 趣味的航空路誌改訂情報 2019/8/15 thu | トップページ | 定点 富山空港 2019/8/19 mon »

富山空港」カテゴリの記事

コメント

コメントを書く



(ウェブ上には掲載しません)


コメントは記事投稿者が公開するまで表示されません。



« 趣味的航空路誌改訂情報 2019/8/15 thu | トップページ | 定点 富山空港 2019/8/19 mon »